createdAt,value
2022-12-18T00:01:22.047Z,20.05
2022-12-18T00:03:49.192Z,17.35
2022-12-18T00:06:16.677Z,19.55
2022-12-18T00:08:43.548Z,17.30
2022-12-18T00:11:13.668Z,19.00
2022-12-18T00:13:40.951Z,18.85
2022-12-18T00:16:10.327Z,19.58
2022-12-18T00:18:37.343Z,20.60
2022-12-18T00:21:07.256Z,20.70
2022-12-18T00:23:35.713Z,22.05
2022-12-18T00:26:03.778Z,22.25
2022-12-18T00:28:30.192Z,22.35
2022-12-18T00:31:08.401Z,22.88
2022-12-18T00:33:36.212Z,21.15
2022-12-18T00:36:05.490Z,18.95
2022-12-18T00:38:31.926Z,19.42
2022-12-18T00:40:58.329Z,19.92
2022-12-18T00:43:24.735Z,20.73
2022-12-18T00:45:51.430Z,19.23
2022-12-18T00:48:17.931Z,20.63
2022-12-18T00:50:44.348Z,19.15
2022-12-18T00:53:11.066Z,19.25
2022-12-18T00:55:41.432Z,21.23
2022-12-18T00:58:08.748Z,20.87
2022-12-18T01:00:36.019Z,20.92
2022-12-18T01:03:03.068Z,19.70
2022-12-18T01:05:29.523Z,20.98
2022-12-18T01:07:58.133Z,20.33
2022-12-18T01:10:24.735Z,21.08
2022-12-18T01:12:51.273Z,22.02
2022-12-18T01:15:18.382Z,20.73
2022-12-18T01:17:44.981Z,19.35
2022-12-18T01:20:12.996Z,19.45
2022-12-18T01:22:39.554Z,22.67
2022-12-18T01:25:06.527Z,19.30
2022-12-18T01:27:34.880Z,18.77
2022-12-18T01:30:01.283Z,19.75
2022-12-18T01:32:31.377Z,19.35
2022-12-18T01:34:57.855Z,19.58
2022-12-18T01:37:24.347Z,20.05
2022-12-18T01:39:50.897Z,19.30
2022-12-18T01:42:17.618Z,20.13
2022-12-18T01:45:02.621Z,20.00
2022-12-18T01:47:54.418Z,21.67
2022-12-18T01:50:37.235Z,23.83
2022-12-18T01:53:08.339Z,22.73
2022-12-18T01:55:43.178Z,22.77
2022-12-18T01:58:11.078Z,22.08
2022-12-18T02:00:37.532Z,19.75
2022-12-18T02:03:04.233Z,20.67
2022-12-18T02:05:49.802Z,20.17
2022-12-18T02:08:34.761Z,21.17
2022-12-18T02:11:33.850Z,20.75
2022-12-18T02:14:35.858Z,20.13
2022-12-18T02:17:08.619Z,20.67
2022-12-18T02:20:07.521Z,21.48
2022-12-18T02:22:42.886Z,21.52
2022-12-18T02:25:12.113Z,19.88
2022-12-18T02:27:40.203Z,20.45
2022-12-18T02:30:08.308Z,19.77
2022-12-18T02:32:40.757Z,18.98
2022-12-18T02:35:11.657Z,20.08
2022-12-18T02:37:41.871Z,21.35
2022-12-18T02:40:09.359Z,20.52
2022-12-18T02:42:35.845Z,22.63
2022-12-18T02:45:02.238Z,20.58
2022-12-18T02:47:33.596Z,21.00
2022-12-18T02:50:03.409Z,20.92
2022-12-18T02:52:32.807Z,20.02
2022-12-18T02:55:17.637Z,21.13
2022-12-18T02:57:51.220Z,21.05
2022-12-18T03:00:22.777Z,22.63
2022-12-18T03:03:01.987Z,23.35
2022-12-18T03:05:39.574Z,21.63
2022-12-18T03:08:18.943Z,22.83
2022-12-18T03:10:55.589Z,22.77
2022-12-18T03:13:29.401Z,21.23
2022-12-18T03:15:58.353Z,22.67
2022-12-18T03:18:31.212Z,23.35
2022-12-18T03:21:01.171Z,22.83
2022-12-18T03:23:32.340Z,22.45
2022-12-18T03:26:07.247Z,22.02
2022-12-18T03:28:38.511Z,21.70
2022-12-18T03:31:08.442Z,21.80
2022-12-18T03:34:04.284Z,22.95
2022-12-18T03:36:32.044Z,22.55
2022-12-18T03:38:58.570Z,23.55
2022-12-18T03:41:50.363Z,22.58
2022-12-18T03:44:43.919Z,25.70
2022-12-18T03:47:20.404Z,24.45
2022-12-18T03:49:56.960Z,24.92
2022-12-18T03:52:23.335Z,24.20
2022-12-18T03:54:50.339Z,24.85
2022-12-18T03:57:21.682Z,26.17
2022-12-18T04:02:18.364Z,25.52
2022-12-18T04:04:47.691Z,27.70
2022-12-18T04:07:15.268Z,25.38
2022-12-18T04:09:42.916Z,27.27
2022-12-18T04:12:10.196Z,24.23
2022-12-18T04:14:36.694Z,26.35
2022-12-18T04:17:03.782Z,24.70
2022-12-18T04:19:30.163Z,25.10
2022-12-18T04:21:56.607Z,25.27
2022-12-18T04:24:23.061Z,23.63
2022-12-18T04:26:49.493Z,24.77
2022-12-18T04:29:15.983Z,24.40
2022-12-18T04:31:42.378Z,21.98
2022-12-18T04:34:08.758Z,24.42
2022-12-18T04:36:35.259Z,23.83
2022-12-18T04:39:01.678Z,25.33
2022-12-18T04:41:28.099Z,24.75
2022-12-18T04:43:54.592Z,25.20
2022-12-18T04:46:21.110Z,25.80
2022-12-18T04:48:47.907Z,25.30
2022-12-18T04:51:14.473Z,25.08
2022-12-18T04:53:41.346Z,27.00
2022-12-18T04:56:11.433Z,27.90
2022-12-18T04:58:39.056Z,29.08
2022-12-18T05:01:06.115Z,27.42
2022-12-18T05:03:32.608Z,28.88
2022-12-18T05:05:59.072Z,27.83
2022-12-18T05:08:25.521Z,28.17
2022-12-18T05:11:10.848Z,28.17
2022-12-18T05:13:38.984Z,28.48
2022-12-18T05:16:06.641Z,26.23
2022-12-18T05:18:33.267Z,26.38
2022-12-18T05:20:59.859Z,27.70
2022-12-18T05:23:26.375Z,23.95
2022-12-18T05:25:58.180Z,23.67
2022-12-18T05:28:26.497Z,23.23
2022-12-18T05:30:54.838Z,25.55
2022-12-18T05:33:23.119Z,24.23
2022-12-18T05:35:54.343Z,22.27
2022-12-18T05:38:22.503Z,24.60
2022-12-18T05:40:49.829Z,25.83
2022-12-18T05:43:20.938Z,22.95
2022-12-18T05:45:48.803Z,22.40
2022-12-18T05:48:16.051Z,24.52
2022-12-18T05:50:46.289Z,22.08
2022-12-18T05:53:14.489Z,25.33
2022-12-18T05:55:42.621Z,24.13
2022-12-18T05:58:10.635Z,25.58
2022-12-18T06:00:42.073Z,25.33
2022-12-18T06:03:10.356Z,24.33
2022-12-18T06:05:46.311Z,22.63
2022-12-18T06:08:14.098Z,24.92
2022-12-18T06:10:41.814Z,23.05
2022-12-18T06:13:08.449Z,23.40
2022-12-18T06:15:38.177Z,23.33
2022-12-18T06:18:04.811Z,21.90
2022-12-18T06:20:33.649Z,22.05
2022-12-18T06:23:00.736Z,23.67
2022-12-18T06:25:27.149Z,23.90
2022-12-18T06:27:53.610Z,26.20
2022-12-18T06:30:20.192Z,23.98
2022-12-18T06:32:48.623Z,24.73
2022-12-18T06:35:18.158Z,23.63
2022-12-18T06:37:45.281Z,24.13
2022-12-18T06:40:11.668Z,22.77
2022-12-18T06:42:38.114Z,24.58
2022-12-18T06:45:04.886Z,25.92
2022-12-18T06:47:31.249Z,24.73
2022-12-18T06:49:57.662Z,25.00
2022-12-18T06:52:24.060Z,24.10
2022-12-18T06:54:50.585Z,22.45
2022-12-18T06:57:16.972Z,23.30
2022-12-18T06:59:43.365Z,22.35
2022-12-18T07:02:13.513Z,23.65
2022-12-18T07:04:39.978Z,23.45
2022-12-18T07:07:06.432Z,23.52
2022-12-18T07:09:32.830Z,22.58
2022-12-18T07:11:59.248Z,22.25
2022-12-18T07:14:26.019Z,22.42
2022-12-18T07:16:52.456Z,24.23
2022-12-18T07:19:18.877Z,24.92
2022-12-18T07:21:45.264Z,25.23
2022-12-18T07:24:11.664Z,25.38
2022-12-18T07:26:38.224Z,22.52
2022-12-18T07:29:04.615Z,24.02
2022-12-18T07:31:31.168Z,25.00
2022-12-18T07:33:57.843Z,23.65
2022-12-18T07:36:24.420Z,24.52
2022-12-18T07:38:52.405Z,26.83
2022-12-18T07:41:19.719Z,22.60
2022-12-18T07:43:46.543Z,24.00
2022-12-18T07:46:16.541Z,23.73
2022-12-18T07:48:44.301Z,23.90
2022-12-18T07:51:13.403Z,24.85
2022-12-18T07:53:40.961Z,24.05
2022-12-18T07:58:57.497Z,25.15
2022-12-18T08:01:24.187Z,22.52
2022-12-18T08:03:52.314Z,25.00
2022-12-18T08:06:19.616Z,23.27
2022-12-18T08:08:49.756Z,22.63
2022-12-18T08:11:16.735Z,22.83
2022-12-18T08:13:43.421Z,24.85
2022-12-18T08:16:10.065Z,23.48
2022-12-18T08:18:38.343Z,23.05
2022-12-18T08:21:21.364Z,25.90
2022-12-18T08:23:48.796Z,25.08
2022-12-18T08:26:16.119Z,26.48
2022-12-18T08:28:42.838Z,26.75
2022-12-18T08:31:09.931Z,25.83
2022-12-18T08:33:38.837Z,24.73
2022-12-18T08:36:06.428Z,24.20
2022-12-18T08:38:33.872Z,25.15
2022-12-18T08:41:10.074Z,24.10
2022-12-18T08:43:55.147Z,23.35
2022-12-18T08:46:23.570Z,22.80
2022-12-18T08:48:52.462Z,25.10
2022-12-18T08:51:19.505Z,25.83
2022-12-18T08:53:46.748Z,24.80
2022-12-18T08:56:14.919Z,26.65
2022-12-18T08:58:42.393Z,24.65
2022-12-18T09:01:11.441Z,23.13
2022-12-18T09:03:39.068Z,24.50
2022-12-18T09:06:06.879Z,25.52
2022-12-18T09:08:33.444Z,23.45
2022-12-18T09:10:59.829Z,23.90
2022-12-18T09:13:26.225Z,24.60
2022-12-18T09:15:54.750Z,27.88
2022-12-18T09:18:22.365Z,28.45
2022-12-18T09:20:48.849Z,24.25
2022-12-18T09:23:15.493Z,23.92
2022-12-18T09:25:41.946Z,25.23
2022-12-18T09:28:14.178Z,26.35
2022-12-18T09:30:45.604Z,26.25
2022-12-18T09:33:12.324Z,25.92
2022-12-18T09:35:41.473Z,25.98
2022-12-18T09:38:12.164Z,28.02
2022-12-18T09:40:58.610Z,23.55
2022-12-18T09:43:34.809Z,21.70
2022-12-18T09:46:08.660Z,23.73
2022-12-18T09:48:43.855Z,22.25
2022-12-18T09:51:17.725Z,22.55
2022-12-18T09:53:59.342Z,23.38
2022-12-18T09:56:29.307Z,22.60
2022-12-18T09:59:00.703Z,23.58
2022-12-18T10:01:36.344Z,25.42
2022-12-18T10:04:10.368Z,23.20
2022-12-18T10:06:44.939Z,24.27
2022-12-18T10:09:26.657Z,24.02
2022-12-18T10:12:22.334Z,23.75
2022-12-18T10:15:24.635Z,21.83
2022-12-18T10:18:23.456Z,21.42
2022-12-18T10:20:54.758Z,21.05
2022-12-18T10:25:54.321Z,22.05
2022-12-18T10:28:21.589Z,24.10
2022-12-18T10:30:48.071Z,22.98
2022-12-18T10:33:23.475Z,21.55
2022-12-18T10:35:53.412Z,21.85
2022-12-18T10:38:20.134Z,22.55
2022-12-18T10:40:55.955Z,22.95
2022-12-18T10:43:26.654Z,22.75
2022-12-18T10:46:11.078Z,21.58
2022-12-18T10:48:58.659Z,23.52
2022-12-18T10:51:32.380Z,23.17
2022-12-18T10:54:04.328Z,22.33
2022-12-18T10:56:36.132Z,22.52
2022-12-18T10:59:06.000Z,22.58
2022-12-18T11:01:59.077Z,23.80
2022-12-18T11:04:28.744Z,24.38
2022-12-18T11:07:09.761Z,25.95
2022-12-18T11:09:38.577Z,26.85
2022-12-18T11:12:13.820Z,27.10
2022-12-18T11:14:48.251Z,28.20
2022-12-18T11:17:36.497Z,29.25
2022-12-18T11:20:07.870Z,28.38
2022-12-18T11:28:26.561Z,29.63
2022-12-18T11:31:22.585Z,30.23
2022-12-18T11:34:34.349Z,29.88
2022-12-18T11:39:31.470Z,26.85
2022-12-18T11:42:11.024Z,26.65
2022-12-18T11:45:14.131Z,30.38
2022-12-18T11:47:46.854Z,33.22
2022-12-18T11:50:35.669Z,29.77
2022-12-18T11:53:06.154Z,29.58
2022-12-18T11:55:59.939Z,30.52
2022-12-18T11:58:57.165Z,28.50
2022-12-18T12:01:56.303Z,28.83
2022-12-18T12:05:05.082Z,28.65
2022-12-18T12:07:49.476Z,27.42
2022-12-18T12:10:29.482Z,30.35
2022-12-18T12:20:04.784Z,26.20
2022-12-18T12:22:45.076Z,27.80
2022-12-18T12:28:33.219Z,22.90
2022-12-18T12:31:35.349Z,24.85
2022-12-18T12:34:19.962Z,26.48
2022-12-18T12:37:31.716Z,23.67
2022-12-18T12:43:22.068Z,22.30
2022-12-18T12:45:55.050Z,24.33
2022-12-18T12:48:51.476Z,23.60
2022-12-18T12:51:26.363Z,25.48
2022-12-18T12:54:01.908Z,23.92
2022-12-18T12:56:57.687Z,22.02
2022-12-18T12:59:58.808Z,23.20
2022-12-18T13:05:07.552Z,21.73
2022-12-18T13:07:43.204Z,25.60
2022-12-18T13:10:34.834Z,22.67
2022-12-18T13:13:23.133Z,24.52
2022-12-18T13:16:17.462Z,23.08
2022-12-18T13:18:53.979Z,25.10
2022-12-18T13:21:37.146Z,24.10
2022-12-18T13:24:33.071Z,25.70
2022-12-18T13:27:41.175Z,24.35
2022-12-18T13:30:42.324Z,24.05
2022-12-18T13:33:43.126Z,24.95
2022-12-18T13:36:37.764Z,23.02
2022-12-18T13:45:39.949Z,19.92
2022-12-18T13:48:17.082Z,22.00
2022-12-18T13:50:43.748Z,23.50
2022-12-18T13:53:23.112Z,22.67
2022-12-18T13:55:51.195Z,21.73
2022-12-18T13:58:17.925Z,20.35
2022-12-18T14:00:45.194Z,21.67
2022-12-18T14:03:27.140Z,20.38
2022-12-18T14:06:09.074Z,18.20
2022-12-18T14:08:42.013Z,21.42
2022-12-18T14:11:21.453Z,20.30
2022-12-18T14:13:48.659Z,21.48
2022-12-18T14:16:17.635Z,21.88
2022-12-18T14:18:53.166Z,19.75
2022-12-18T14:21:24.173Z,23.45
2022-12-18T14:24:06.395Z,24.33
2022-12-18T14:26:34.194Z,25.80
2022-12-18T14:29:24.112Z,23.73
2022-12-18T14:32:08.439Z,24.02
2022-12-18T14:34:38.386Z,24.40
2022-12-18T14:37:05.084Z,24.60
2022-12-18T14:39:31.655Z,26.05
2022-12-18T14:41:58.140Z,24.60
2022-12-18T14:44:24.600Z,26.50
2022-12-18T14:46:52.075Z,26.08
2022-12-18T14:49:24.526Z,24.90
2022-12-18T14:51:54.420Z,24.60
2022-12-18T14:54:22.575Z,24.65
2022-12-18T14:56:52.904Z,26.63
2022-12-18T14:59:25.257Z,25.50
2022-12-18T15:02:11.874Z,25.75
2022-12-18T15:04:41.664Z,25.88
2022-12-18T15:07:14.815Z,25.60
2022-12-18T15:09:43.946Z,26.75
2022-12-18T15:13:12.104Z,26.08
2022-12-18T15:15:38.827Z,24.25
2022-12-18T15:18:18.478Z,25.63
2022-12-18T15:20:57.103Z,21.50
2022-12-18T15:23:26.393Z,23.70
2022-12-18T15:26:01.452Z,24.63
2022-12-18T15:28:35.432Z,23.83
2022-12-18T15:31:04.841Z,23.92
2022-12-18T15:33:37.050Z,22.58
2022-12-18T15:36:06.498Z,23.92
2022-12-18T15:38:33.099Z,23.15
2022-12-18T15:40:59.714Z,23.60
2022-12-18T15:43:36.109Z,25.85
2022-12-18T15:46:04.591Z,22.92
2022-12-18T15:48:32.929Z,24.33
2022-12-18T15:50:59.523Z,25.15
2022-12-18T15:53:31.195Z,26.52
2022-12-18T15:56:17.231Z,24.88
2022-12-18T15:58:43.739Z,25.23
2022-12-18T16:01:11.688Z,24.60
2022-12-18T16:03:38.804Z,26.15
2022-12-18T16:06:05.763Z,24.30
2022-12-18T16:08:32.418Z,23.55
2022-12-18T16:10:59.263Z,24.90
2022-12-18T16:13:25.675Z,24.63
2022-12-18T16:15:52.191Z,27.00
2022-12-18T16:18:18.661Z,27.73
2022-12-18T16:20:45.137Z,26.52
2022-12-18T16:23:11.515Z,25.33
2022-12-18T16:25:37.960Z,26.33
2022-12-18T16:28:04.565Z,25.23
2022-12-18T16:30:38.099Z,26.42
2022-12-18T16:33:05.589Z,24.13
2022-12-18T16:35:33.950Z,26.90
2022-12-18T16:38:00.584Z,28.00
2022-12-18T16:40:27.083Z,27.10
2022-12-18T16:42:53.658Z,24.75
2022-12-18T16:45:20.227Z,25.83
2022-12-18T16:47:46.817Z,26.13
2022-12-18T16:50:13.329Z,25.38
2022-12-18T16:52:40.039Z,26.85
2022-12-18T16:55:06.772Z,26.30
2022-12-18T16:57:33.819Z,27.23
2022-12-18T17:00:05.182Z,25.20
2022-12-18T17:02:32.402Z,24.20
2022-12-18T17:04:59.506Z,26.02
2022-12-18T17:07:27.080Z,27.73
2022-12-18T17:09:54.820Z,28.48
2022-12-18T17:12:21.661Z,27.75
2022-12-18T17:14:48.195Z,30.00
2022-12-18T17:17:23.791Z,28.42
2022-12-18T17:19:51.432Z,28.30
2022-12-18T17:22:17.899Z,26.50
2022-12-18T17:24:44.362Z,25.70
2022-12-18T17:27:10.818Z,26.35
2022-12-18T17:29:40.103Z,24.95
2022-12-18T17:32:11.729Z,22.48
2022-12-18T17:34:38.479Z,23.88
2022-12-18T17:37:04.907Z,23.95
2022-12-18T17:39:31.318Z,24.45
2022-12-18T17:41:59.340Z,24.08
2022-12-18T17:44:25.896Z,25.75
2022-12-18T17:46:52.367Z,25.58
2022-12-18T17:49:18.812Z,23.60
2022-12-18T17:51:45.226Z,24.88
2022-12-18T17:54:11.736Z,24.13
2022-12-18T17:56:39.101Z,23.33
2022-12-18T17:59:06.865Z,23.58
2022-12-18T18:01:33.471Z,23.02
2022-12-18T18:04:00.713Z,22.33
2022-12-18T18:06:27.730Z,24.20
2022-12-18T18:08:54.240Z,23.23
2022-12-18T18:11:41.119Z,23.60
2022-12-18T18:14:13.300Z,22.42
2022-12-18T18:16:46.154Z,23.77
2022-12-18T18:19:15.971Z,23.63
2022-12-18T18:21:44.675Z,26.17
2022-12-18T18:24:14.213Z,26.58
2022-12-18T18:26:41.651Z,24.95
2022-12-18T18:29:09.181Z,26.30
2022-12-18T18:31:40.953Z,25.67
2022-12-18T18:34:08.520Z,25.25
2022-12-18T18:36:34.984Z,24.35
2022-12-18T18:39:02.066Z,25.15
2022-12-18T18:41:30.379Z,24.90
2022-12-18T18:43:58.344Z,24.80
2022-12-18T18:46:25.994Z,25.88
2022-12-18T18:48:52.765Z,24.92
2022-12-18T18:51:21.513Z,26.58
2022-12-18T18:53:49.572Z,23.42
2022-12-18T18:59:05.722Z,25.92
2022-12-18T19:01:32.832Z,25.85
2022-12-18T19:04:00.690Z,25.58
2022-12-18T19:06:28.398Z,23.27
2022-12-18T19:08:56.291Z,25.13
2022-12-18T19:11:42.431Z,23.30
2022-12-18T19:14:11.092Z,23.45
2022-12-18T19:16:37.881Z,24.38
2022-12-18T19:19:05.837Z,23.05
2022-12-18T19:21:34.134Z,23.33
2022-12-18T19:24:02.650Z,23.80
2022-12-18T19:26:29.573Z,24.40
2022-12-18T19:29:04.661Z,23.75
2022-12-18T19:31:35.550Z,22.90
2022-12-18T19:34:05.349Z,24.67
2022-12-18T19:36:32.564Z,21.77
2022-12-18T19:41:37.737Z,25.55
2022-12-18T19:44:07.528Z,25.92
2022-12-18T19:46:34.543Z,24.35
2022-12-18T19:49:00.978Z,24.00
2022-12-18T19:51:29.705Z,24.90
2022-12-18T19:53:59.307Z,23.30
2022-12-18T19:56:29.856Z,24.70
2022-12-18T19:58:56.336Z,24.35
2022-12-18T20:01:24.645Z,25.25
2022-12-18T20:03:53.652Z,25.92
2022-12-18T20:06:34.138Z,25.33
2022-12-18T20:09:04.114Z,25.08
2022-12-18T20:11:31.907Z,27.05
2022-12-18T20:13:58.370Z,25.90
2022-12-18T20:16:25.040Z,25.83
2022-12-18T20:18:52.301Z,24.73
2022-12-18T20:21:18.931Z,24.02
2022-12-18T20:23:45.882Z,27.25
2022-12-18T20:26:12.865Z,27.27
2022-12-18T20:28:39.370Z,24.98
2022-12-18T20:31:08.463Z,26.08
2022-12-18T20:33:37.686Z,27.83
2022-12-18T20:36:06.816Z,27.20
2022-12-18T20:38:35.381Z,28.67
2022-12-18T20:41:07.680Z,26.13
2022-12-18T20:43:34.218Z,26.50
2022-12-18T20:46:06.161Z,28.08
2022-12-18T20:48:33.460Z,27.85
2022-12-18T20:51:03.621Z,27.13
2022-12-18T20:53:30.656Z,26.42
2022-12-18T20:55:57.268Z,26.75
2022-12-18T20:58:24.051Z,27.25
2022-12-18T21:00:51.536Z,27.73
2022-12-18T21:03:18.790Z,27.67
2022-12-18T21:05:45.376Z,28.10
2022-12-18T21:08:11.921Z,27.58
2022-12-18T21:10:42.336Z,26.70
2022-12-18T21:13:09.513Z,27.85
2022-12-18T21:15:37.771Z,27.50
2022-12-18T21:18:04.443Z,27.25
2022-12-18T21:20:31.076Z,29.02
2022-12-18T21:23:08.563Z,28.73
2022-12-18T21:25:43.372Z,26.90
2022-12-18T21:28:09.926Z,26.98
2022-12-18T21:30:36.554Z,29.95
2022-12-18T21:33:03.205Z,27.38
2022-12-18T21:35:29.794Z,29.48
2022-12-18T21:37:58.640Z,26.25
2022-12-18T21:40:25.153Z,29.13
2022-12-18T21:43:10.279Z,26.23
2022-12-18T21:45:39.647Z,27.83
2022-12-18T21:48:06.074Z,27.45
2022-12-18T21:50:32.486Z,28.40
2022-12-18T21:52:58.853Z,29.55
2022-12-18T21:55:25.585Z,27.63
2022-12-18T21:57:53.749Z,29.10
2022-12-18T22:00:20.257Z,29.52
2022-12-18T22:02:48.346Z,29.33
2022-12-18T22:05:28.748Z,27.60
2022-12-18T22:07:55.119Z,27.75
2022-12-18T22:10:21.516Z,28.38
2022-12-18T22:12:48.920Z,29.33
2022-12-18T22:15:21.516Z,29.25
2022-12-18T22:17:53.450Z,28.17
2022-12-18T22:20:26.472Z,26.90
2022-12-18T22:22:53.373Z,26.80
2022-12-18T22:25:19.828Z,27.55
2022-12-18T22:28:06.233Z,30.50
2022-12-18T22:30:32.846Z,27.77
2022-12-18T22:32:59.559Z,27.02
2022-12-18T22:35:25.965Z,29.25
2022-12-18T22:37:52.496Z,28.73
2022-12-18T22:40:25.383Z,28.98
2022-12-18T22:42:55.867Z,28.73
2022-12-18T22:45:22.301Z,26.85
2022-12-18T22:47:48.769Z,28.05
2022-12-18T22:50:15.517Z,26.92
2022-12-18T22:52:42.329Z,26.73
2022-12-18T22:55:08.975Z,26.35
2022-12-18T22:57:35.480Z,28.38
2022-12-18T23:00:04.905Z,27.50
2022-12-18T23:02:31.483Z,27.15
2022-12-18T23:04:58.024Z,27.38
2022-12-18T23:07:24.390Z,27.13
2022-12-18T23:09:50.863Z,25.33
2022-12-18T23:12:24.850Z,27.65
2022-12-18T23:14:52.715Z,27.88
2022-12-18T23:17:19.173Z,26.33
2022-12-18T23:19:49.029Z,26.48
2022-12-18T23:22:16.613Z,26.98
2022-12-18T23:24:43.007Z,27.30
2022-12-18T23:27:11.597Z,26.70
2022-12-18T23:29:39.078Z,24.40
2022-12-18T23:32:05.488Z,25.20
2022-12-18T23:34:32.045Z,26.85
2022-12-18T23:36:58.615Z,26.95
2022-12-18T23:39:29.800Z,27.77
2022-12-18T23:41:59.492Z,25.95
2022-12-18T23:44:26.104Z,26.63
2022-12-18T23:46:52.716Z,25.55
2022-12-18T23:49:19.192Z,26.17
2022-12-18T23:51:45.597Z,25.52
2022-12-18T23:54:12.041Z,25.73
2022-12-18T23:56:38.472Z,23.48
2022-12-18T23:59:05.022Z,23.98
